Aeroporto :
LOGIN :

Iscrizione | Disclaimer

   EN    FR    IT 

 










Sommario :    VFR   VFR Marginale   IFR   IFR Intensivo   IFR Molto Intensivo
Visibilità : 
Base nubi : 
>= 8 km
>= 3000ft
5 / 8 km
1000 / 3000 ft
1500m / 5 km
500 / 1000 ft
800 / 1500m
200 / 500 ft
< 800m
< 200 ft
Simboli :   Temporali  Nebbia  Neve Forte  Precipitazioni Forti  Vento > 20 kt
SIGMETs :   Varie  Temporali  Ghiacco  Turbolenza  Onda orograficha  Ceneri Vulcaniche






- Altitudine del aeroporto : 33 ft
- Codice IATA : PLQ


EYPA - Palanga

ULTIMO METAR :
  • 021250Z AUTO 24010KT 200V280 9999 SCT013/// BKN042/// 06/03 Q1001

METARs OBSOLETI :
  • 021220Z AUTO 24009G22KT 190V280 9999 OVC039/// 06/04 Q1001
  • 021150Z AUTO 25009G21KT 180V280 9999 FEW015/// BKN040/// 06/03 Q1001
  • 021120Z AUTO 25010G24KT 200V290 9999 OVC013/// 06/04 Q1002
  • 021050Z AUTO 25010G21KT 200V310 9999 -UP BKN011/// 06/04 Q1001

TAF TAF EYPA
Valido dal 02 a 12 ore il 03 a 12 ore UTC


021101Z 0212/0312 23014G24KT 9000 BKN020
TEMPO 0212/0218 5000 SHRA SCT005 BKN015CB
TEMPO 0220/0302 3000 SHRA BKN005 BKN015CB
TEMPO 0307/0312 5000 SHRA BKN015CB



MetMap, La meteo Aeronautica in un colpo d'occhio ! - Copyright ORBIFLY Dicembre 2007 - Disclaimer

ORBIFLY MET'MAP TEAM :

Programmazione e sviluppo : Alexandra Zaïnal
Concezione : Baudouin d'Aumeries
Aiuto per la programmazione : Marc-Olivier Méhu
Supporto tecnico e logistico : Manuel Goepfert
Aiuto per la traduzione : Arnaldo La Scala

Contatto : metmap@orbifly.com




FONTI E CREDITI :

   NOAA